sensor_id;sensor_type;location;lat;lon;timestamp;pressure;altitude;pressure_sealevel;temperature;humidity
81897;BME280;71360;43.506;1.500;2023-09-12T00:00:55;98716.41;;;23.34;64.82
81897;BME280;71360;43.506;1.500;2023-09-12T00:03:22;98711.97;;;23.33;64.93
81897;BME280;71360;43.506;1.500;2023-09-12T00:05:55;98711.13;;;23.33;64.57
81897;BME280;71360;43.506;1.500;2023-09-12T00:08:22;98706.88;;;23.30;64.50
81897;BME280;71360;43.506;1.500;2023-09-12T00:10:59;98721.03;;;23.25;64.68
81897;BME280;71360;43.506;1.500;2023-09-12T00:13:25;98725.78;;;23.15;63.56
81897;BME280;71360;43.506;1.500;2023-09-12T00:15:53;98721.16;;;22.99;63.34
81897;BME280;71360;43.506;1.500;2023-09-12T00:18:18;98730.34;;;22.82;62.83
81897;BME280;71360;43.506;1.500;2023-09-12T00:20:43;98731.50;;;22.63;63.10
81897;BME280;71360;43.506;1.500;2023-09-12T00:23:10;98727.03;;;22.45;63.22
81897;BME280;71360;43.506;1.500;2023-09-12T00:25:36;98733.44;;;22.28;63.68
81897;BME280;71360;43.506;1.500;2023-09-12T00:28:01;98734.25;;;22.12;64.04
81897;BME280;71360;43.506;1.500;2023-09-12T00:30:27;98733.00;;;21.98;64.09
81897;BME280;71360;43.506;1.500;2023-09-12T00:32:52;98734.59;;;21.82;64.43
81897;BME280;71360;43.506;1.500;2023-09-12T00:35:18;98742.34;;;21.69;65.02
81897;BME280;71360;43.506;1.500;2023-09-12T00:37:43;98744.34;;;21.58;64.83
81897;BME280;71360;43.506;1.500;2023-09-12T00:40:09;98746.81;;;21.52;65.08
81897;BME280;71360;43.506;1.500;2023-09-12T00:42:35;98745.75;;;21.45;65.31
81897;BME280;71360;43.506;1.500;2023-09-12T00:45:00;98746.38;;;21.38;65.91
81897;BME280;71360;43.506;1.500;2023-09-12T00:47:27;98762.47;;;21.32;65.93
81897;BME280;71360;43.506;1.500;2023-09-12T00:49:55;98764.97;;;21.25;66.08
81897;BME280;71360;43.506;1.500;2023-09-12T00:52:26;98763.72;;;21.19;66.23
81897;BME280;71360;43.506;1.500;2023-09-12T00:54:52;98758.06;;;21.13;66.52
81897;BME280;71360;43.506;1.500;2023-09-12T00:57:19;98758.56;;;21.08;67.23
81897;BME280;71360;43.506;1.500;2023-09-12T00:59:46;98743.69;;;21.02;67.08
81897;BME280;71360;43.506;1.500;2023-09-12T01:02:12;98739.31;;;21.01;66.86
81897;BME280;71360;43.506;1.500;2023-09-12T01:04:37;98729.44;;;21.00;67.39
81897;BME280;71360;43.506;1.500;2023-09-12T01:07:04;98724.00;;;21.00;67.31
81897;BME280;71360;43.506;1.500;2023-09-12T01:09:30;98723.00;;;21.01;67.71
81897;BME280;71360;43.506;1.500;2023-09-12T01:11:56;98721.13;;;21.02;67.42
81897;BME280;71360;43.506;1.500;2023-09-12T01:14:22;98721.69;;;21.05;67.46
81897;BME280;71360;43.506;1.500;2023-09-12T01:16:47;98735.94;;;21.07;67.45
81897;BME280;71360;43.506;1.500;2023-09-12T01:19:14;98733.94;;;21.10;67.31
81897;BME280;71360;43.506;1.500;2023-09-12T01:25:00;98743.09;;;21.08;67.25
81897;BME280;71360;43.506;1.500;2023-09-12T01:27:35;98745.81;;;21.08;67.32
81897;BME280;71360;43.506;1.500;2023-09-12T01:30:05;98738.38;;;21.11;67.74
81897;BME280;71360;43.506;1.500;2023-09-12T01:35:22;98741.75;;;21.13;67.60
81897;BME280;71360;43.506;1.500;2023-09-12T01:37:48;98748.19;;;21.12;67.30
81897;BME280;71360;43.506;1.500;2023-09-12T01:40:13;98741.94;;;21.11;67.65
81897;BME280;71360;43.506;1.500;2023-09-12T01:42:44;98749.91;;;21.13;67.80
81897;BME280;71360;43.506;1.500;2023-09-12T01:45:13;98748.19;;;21.12;67.33
81897;BME280;71360;43.506;1.500;2023-09-12T01:47:39;98744.47;;;21.13;68.24
81897;BME280;71360;43.506;1.500;2023-09-12T01:50:08;98759.63;;;21.15;67.77
81897;BME280;71360;43.506;1.500;2023-09-12T01:52:35;98765.91;;;21.16;67.50
81897;BME280;71360;43.506;1.500;2023-09-12T01:55:03;98784.75;;;21.17;67.87
81897;BME280;71360;43.506;1.500;2023-09-12T01:57:30;98784.41;;;21.12;68.27
81897;BME280;71360;43.506;1.500;2023-09-12T01:59:56;98793.00;;;21.07;68.28
81897;BME280;71360;43.506;1.500;2023-09-12T02:02:22;98783.94;;;20.99;68.92
81897;BME280;71360;43.506;1.500;2023-09-12T02:05:12;98792.16;;;20.89;68.74
81897;BME280;71360;43.506;1.500;2023-09-12T02:07:42;98782.22;;;20.80;69.22
81897;BME280;71360;43.506;1.500;2023-09-12T02:10:08;98782.28;;;20.70;69.84
81897;BME280;71360;43.506;1.500;2023-09-12T02:12:35;98779.47;;;20.62;70.07
81897;BME280;71360;43.506;1.500;2023-09-12T02:15:01;98788.38;;;20.54;70.25
81897;BME280;71360;43.506;1.500;2023-09-12T02:17:27;98771.28;;;20.44;71.31
81897;BME280;71360;43.506;1.500;2023-09-12T02:19:55;98777.31;;;20.37;71.51
81897;BME280;71360;43.506;1.500;2023-09-12T02:22:21;98776.19;;;20.30;71.38
81897;BME280;71360;43.506;1.500;2023-09-12T02:24:46;98778.53;;;20.25;71.91
81897;BME280;71360;43.506;1.500;2023-09-12T02:27:12;98779.28;;;20.17;71.96
81897;BME280;71360;43.506;1.500;2023-09-12T02:29:39;98762.75;;;20.11;72.48
81897;BME280;71360;43.506;1.500;2023-09-12T02:32:05;98763.22;;;20.06;72.29
81897;BME280;71360;43.506;1.500;2023-09-12T02:34:31;98756.38;;;20.02;72.64
81897;BME280;71360;43.506;1.500;2023-09-12T02:36:56;98757.81;;;19.96;73.16
81897;BME280;71360;43.506;1.500;2023-09-12T02:39:22;98759.66;;;19.96;72.66
81897;BME280;71360;43.506;1.500;2023-09-12T02:41:47;98780.38;;;19.97;73.02
81897;BME280;71360;43.506;1.500;2023-09-12T02:44:12;98775.09;;;19.95;72.95
81897;BME280;71360;43.506;1.500;2023-09-12T02:46:38;98768.53;;;19.98;72.89
81897;BME280;71360;43.506;1.500;2023-09-12T02:49:03;98765.66;;;19.99;73.21
81897;BME280;71360;43.506;1.500;2023-09-12T02:51:29;98760.25;;;19.99;73.01
81897;BME280;71360;43.506;1.500;2023-09-12T02:53:55;98752.94;;;20.00;73.08
81897;BME280;71360;43.506;1.500;2023-09-12T02:56:20;98752.09;;;19.99;72.65
81897;BME280;71360;43.506;1.500;2023-09-12T02:58:46;98744.81;;;20.00;72.97
81897;BME280;71360;43.506;1.500;2023-09-12T03:01:16;98742.94;;;20.00;73.26
81897;BME280;71360;43.506;1.500;2023-09-12T03:03:41;98737.38;;;20.02;72.92
81897;BME280;71360;43.506;1.500;2023-09-12T03:06:07;98737.22;;;20.03;73.08
81897;BME280;71360;43.506;1.500;2023-09-12T03:08:33;98732.81;;;20.02;73.32
81897;BME280;71360;43.506;1.500;2023-09-12T03:10:58;98729.09;;;20.03;73.46
81897;BME280;71360;43.506;1.500;2023-09-12T03:13:24;98723.53;;;20.05;73.31
81897;BME280;71360;43.506;1.500;2023-09-12T03:15:51;98716.22;;;20.05;73.24
81897;BME280;71360;43.506;1.500;2023-09-12T03:18:16;98712.50;;;20.06;73.18
81897;BME280;71360;43.506;1.500;2023-09-12T03:20:42;98709.63;;;20.08;73.08
81897;BME280;71360;43.506;1.500;2023-09-12T03:23:07;98711.19;;;20.11;73.16
81897;BME280;71360;43.506;1.500;2023-09-12T03:25:37;98711.03;;;20.12;73.25
81897;BME280;71360;43.506;1.500;2023-09-12T03:28:04;98717.34;;;20.13;72.73
81897;BME280;71360;43.506;1.500;2023-09-12T03:30:29;98722.63;;;20.14;72.84
81897;BME280;71360;43.506;1.500;2023-09-12T03:32:55;98720.91;;;20.13;72.88
81897;BME280;71360;43.506;1.500;2023-09-12T03:35:20;98736.19;;;20.14;72.67
81897;BME280;71360;43.506;1.500;2023-09-12T03:37:46;98733.31;;;20.16;73.04
81897;BME280;71360;43.506;1.500;2023-09-12T03:40:11;98729.59;;;20.17;73.00
81897;BME280;71360;43.506;1.500;2023-09-12T03:42:37;98721.47;;;20.17;73.21
81897;BME280;71360;43.506;1.500;2023-09-12T03:45:03;98717.72;;;20.18;73.07
81897;BME280;71360;43.506;1.500;2023-09-12T03:47:28;98709.44;;;20.19;72.94
81897;BME280;71360;43.506;1.500;2023-09-12T03:49:54;98715.72;;;20.20;73.43
81897;BME280;71360;43.506;1.500;2023-09-12T03:52:19;98710.13;;;20.21;73.01
81897;BME280;71360;43.506;1.500;2023-09-12T03:54:45;98715.41;;;20.23;73.01
81897;BME280;71360;43.506;1.500;2023-09-12T03:57:10;98708.00;;;20.25;73.01
81897;BME280;71360;43.506;1.500;2023-09-12T03:59:36;98708.81;;;20.26;72.84
81897;BME280;71360;43.506;1.500;2023-09-12T04:02:02;98702.41;;;20.27;72.67
81897;BME280;71360;43.506;1.500;2023-09-12T04:04:30;98717.66;;;20.28;72.80
81897;BME280;71360;43.506;1.500;2023-09-12T04:06:56;98719.22;;;20.30;72.83
81897;BME280;71360;43.506;1.500;2023-09-12T04:09:21;98715.66;;;20.30;73.13
81897;BME280;71360;43.506;1.500;2023-09-12T04:11:47;98723.78;;;20.30;72.81
81897;BME280;71360;43.506;1.500;2023-09-12T04:14:13;98721.94;;;20.30;72.96
81897;BME280;71360;43.506;1.500;2023-09-12T04:16:39;98723.78;;;20.30;73.10
81897;BME280;71360;43.506;1.500;2023-09-12T04:19:05;98724.63;;;20.30;73.13
81897;BME280;71360;43.506;1.500;2023-09-12T04:21:30;98718.38;;;20.30;72.92
81897;BME280;71360;43.506;1.500;2023-09-12T04:23:56;98722.97;;;20.29;72.71
81897;BME280;71360;43.506;1.500;2023-09-12T04:26:21;98732.09;;;20.28;72.69
81897;BME280;71360;43.506;1.500;2023-09-12T04:28:47;98725.78;;;20.28;72.82
81897;BME280;71360;43.506;1.500;2023-09-12T04:31:13;98728.38;;;20.29;72.40
81897;BME280;71360;43.506;1.500;2023-09-12T04:33:38;98731.09;;;20.29;71.90
81897;BME280;71360;43.506;1.500;2023-09-12T04:36:04;98732.78;;;20.30;72.38
81897;BME280;71360;43.506;1.500;2023-09-12T04:38:30;98736.22;;;20.32;71.99
81897;BME280;71360;43.506;1.500;2023-09-12T04:40:56;98733.81;;;20.29;72.18
81897;BME280;71360;43.506;1.500;2023-09-12T04:43:23;98722.25;;;20.27;71.96
81897;BME280;71360;43.506;1.500;2023-09-12T04:45:48;98716.13;;;20.25;71.58
81897;BME280;71360;43.506;1.500;2023-09-12T04:48:14;98723.72;;;20.21;72.02
81897;BME280;71360;43.506;1.500;2023-09-12T04:50:42;98719.59;;;20.17;71.87
81897;BME280;71360;43.506;1.500;2023-09-12T04:53:08;98719.03;;;20.14;71.62
81897;BME280;71360;43.506;1.500;2023-09-12T04:55:37;98726.47;;;20.12;71.50
81897;BME280;71360;43.506;1.500;2023-09-12T04:58:04;98734.91;;;20.08;71.73
81897;BME280;71360;43.506;1.500;2023-09-12T05:00:30;98727.22;;;20.04;71.82
81897;BME280;71360;43.506;1.500;2023-09-12T05:02:55;98729.25;;;20.02;71.83
81897;BME280;71360;43.506;1.500;2023-09-12T05:05:21;98731.41;;;19.98;71.62
81897;BME280;71360;43.506;1.500;2023-09-12T05:07:46;98736.25;;;19.95;71.80
81897;BME280;71360;43.506;1.500;2023-09-12T05:10:12;98734.69;;;19.92;72.11
81897;BME280;71360;43.506;1.500;2023-09-12T05:12:38;98740.28;;;19.90;72.28
81897;BME280;71360;43.506;1.500;2023-09-12T05:15:04;98745.00;;;19.88;72.22
81897;BME280;71360;43.506;1.500;2023-09-12T05:17:29;98743.44;;;19.86;72.23
81897;BME280;71360;43.506;1.500;2023-09-12T05:19:55;98742.72;;;19.84;72.58
81897;BME280;71360;43.506;1.500;2023-09-12T05:22:20;98739.47;;;19.80;72.49
81897;BME280;71360;43.506;1.500;2023-09-12T05:24:46;98748.72;;;19.78;72.47
81897;BME280;71360;43.506;1.500;2023-09-12T05:27:12;98751.59;;;19.76;72.50
81897;BME280;71360;43.506;1.500;2023-09-12T05:29:37;98739.19;;;19.73;72.24
81897;BME280;71360;43.506;1.500;2023-09-12T05:32:04;98739.47;;;19.70;72.59
81897;BME280;71360;43.506;1.500;2023-09-12T05:34:29;98740.63;;;19.68;72.80
81897;BME280;71360;43.506;1.500;2023-09-12T05:36:56;98740.75;;;19.66;72.70
81897;BME280;71360;43.506;1.500;2023-09-12T05:39:21;98730.94;;;19.65;72.87
81897;BME280;71360;43.506;1.500;2023-09-12T05:41:47;98734.50;;;19.66;72.84
81897;BME280;71360;43.506;1.500;2023-09-12T05:44:12;98732.78;;;19.65;73.10
81897;BME280;71360;43.506;1.500;2023-09-12T05:46:43;98740.06;;;19.64;73.15
81897;BME280;71360;43.506;1.500;2023-09-12T05:49:09;98753.63;;;19.64;73.19
81897;BME280;71360;43.506;1.500;2023-09-12T05:51:34;98755.34;;;19.65;73.48
81897;BME280;71360;43.506;1.500;2023-09-12T05:54:00;98759.88;;;19.65;73.61
81897;BME280;71360;43.506;1.500;2023-09-12T05:56:26;98760.75;;;19.65;73.79
81897;BME280;71360;43.506;1.500;2023-09-12T05:58:52;98759.63;;;19.68;73.55
81897;BME280;71360;43.506;1.500;2023-09-12T06:01:17;98765.72;;;19.70;73.74
81897;BME280;71360;43.506;1.500;2023-09-12T06:03:43;98761.88;;;19.72;74.01
81897;BME280;71360;43.506;1.500;2023-09-12T06:06:09;98767.72;;;19.78;73.62
81897;BME280;71360;43.506;1.500;2023-09-12T06:08:34;98757.56;;;19.80;73.69
81897;BME280;71360;43.506;1.500;2023-09-12T06:11:00;98757.16;;;19.84;73.54
81897;BME280;71360;43.506;1.500;2023-09-12T06:13:25;98749.72;;;19.86;73.87
81897;BME280;71360;43.506;1.500;2023-09-12T06:15:51;98752.00;;;19.91;73.35
81897;BME280;71360;43.506;1.500;2023-09-12T06:18:16;98751.69;;;19.94;73.51
81897;BME280;71360;43.506;1.500;2023-09-12T06:20:43;98755.81;;;19.98;73.67
81897;BME280;71360;43.506;1.500;2023-09-12T06:23:08;98750.06;;;20.01;73.55
81897;BME280;71360;43.506;1.500;2023-09-12T06:25:35;98748.94;;;20.04;73.69
81897;BME280;71360;43.506;1.500;2023-09-12T06:28:00;98758.47;;;20.08;73.58
81897;BME280;71360;43.506;1.500;2023-09-12T06:30:26;98754.28;;;20.14;74.14
81897;BME280;71360;43.506;1.500;2023-09-12T06:32:51;98762.53;;;20.22;73.95
81897;BME280;71360;43.506;1.500;2023-09-12T06:35:17;98764.34;;;20.31;73.71
81897;BME280;71360;43.506;1.500;2023-09-12T06:37:43;98759.56;;;20.43;73.77
81897;BME280;71360;43.506;1.500;2023-09-12T06:40:09;98769.34;;;20.54;73.69
81897;BME280;71360;43.506;1.500;2023-09-12T06:42:35;98767.13;;;20.67;73.57
81897;BME280;71360;43.506;1.500;2023-09-12T06:45:00;98764.94;;;20.81;73.46
81897;BME280;71360;43.506;1.500;2023-09-12T06:47:26;98780.81;;;20.94;72.63
81897;BME280;71360;43.506;1.500;2023-09-12T06:49:51;98772.59;;;21.03;72.52
81897;BME280;71360;43.506;1.500;2023-09-12T06:52:16;98773.38;;;21.14;72.53
81897;BME280;71360;43.506;1.500;2023-09-12T06:54:42;98772.44;;;21.23;72.33
81897;BME280;71360;43.506;1.500;2023-09-12T06:57:07;98768.91;;;21.31;72.33
81897;BME280;71360;43.506;1.500;2023-09-12T06:59:33;98768.13;;;21.38;71.65
81897;BME280;71360;43.506;1.500;2023-09-12T07:01:58;98760.72;;;21.49;71.49
81897;BME280;71360;43.506;1.500;2023-09-12T07:04:24;98765.38;;;21.56;70.91
81897;BME280;71360;43.506;1.500;2023-09-12T07:06:57;98764.44;;;21.66;70.87
81897;BME280;71360;43.506;1.500;2023-09-12T07:09:30;98771.09;;;21.71;70.99
81897;BME280;71360;43.506;1.500;2023-09-12T07:11:56;98783.34;;;21.75;70.56
81897;BME280;71360;43.506;1.500;2023-09-12T07:14:22;98790.00;;;21.81;70.51
81897;BME280;71360;43.506;1.500;2023-09-12T07:16:49;98791.25;;;21.87;69.91
81897;BME280;71360;43.506;1.500;2023-09-12T07:19:14;98797.75;;;21.94;69.41
81897;BME280;71360;43.506;1.500;2023-09-12T07:21:40;98797.78;;;22.02;69.44
81897;BME280;71360;43.506;1.500;2023-09-12T07:24:08;98801.56;;;22.09;69.13
81897;BME280;71360;43.506;1.500;2023-09-12T07:26:35;98806.88;;;22.19;68.75
81897;BME280;71360;43.506;1.500;2023-09-12T07:29:02;98814.06;;;22.29;68.74
81897;BME280;71360;43.506;1.500;2023-09-12T07:31:31;98811.25;;;22.38;68.27
81897;BME280;71360;43.506;1.500;2023-09-12T07:33:59;98815.72;;;22.48;68.40
81897;BME280;71360;43.506;1.500;2023-09-12T07:36:32;98813.34;;;22.53;67.88
81897;BME280;71360;43.506;1.500;2023-09-12T07:38:59;98812.00;;;22.57;67.27
81897;BME280;71360;43.506;1.500;2023-09-12T07:41:26;98817.81;;;22.62;67.42
81897;BME280;71360;43.506;1.500;2023-09-12T07:43:53;98815.63;;;22.66;67.26
81897;BME280;71360;43.506;1.500;2023-09-12T07:46:21;98820.91;;;22.67;67.11
81897;BME280;71360;43.506;1.500;2023-09-12T07:48:51;98825.16;;;22.70;67.17
81897;BME280;71360;43.506;1.500;2023-09-12T07:54:44;98851.53;;;22.69;66.73
81897;BME280;71360;43.506;1.500;2023-09-12T07:57:11;98856.97;;;22.69;66.68
81897;BME280;71360;43.506;1.500;2023-09-12T07:59:38;98869.41;;;22.72;67.08
81897;BME280;71360;43.506;1.500;2023-09-12T08:05:30;98884.22;;;22.69;66.29
81897;BME280;71360;43.506;1.500;2023-09-12T08:11:18;98875.69;;;22.64;65.80
81897;BME280;71360;43.506;1.500;2023-09-12T08:13:47;98878.41;;;22.64;65.80
81897;BME280;71360;43.506;1.500;2023-09-12T08:16:13;98875.00;;;22.62;65.96
81897;BME280;71360;43.506;1.500;2023-09-12T08:18:38;98883.19;;;22.62;65.99
81897;BME280;71360;43.506;1.500;2023-09-12T08:21:04;98885.19;;;22.60;65.95
81897;BME280;71360;43.506;1.500;2023-09-12T08:23:29;98881.81;;;22.58;65.67
81897;BME280;71360;43.506;1.500;2023-09-12T08:25:55;98888.97;;;22.59;66.04
81897;BME280;71360;43.506;1.500;2023-09-12T08:28:20;98890.97;;;22.57;66.17
81897;BME280;71360;43.506;1.500;2023-09-12T08:30:46;98900.88;;;22.58;66.08
81897;BME280;71360;43.506;1.500;2023-09-12T08:33:14;98900.69;;;22.59;66.46
81897;BME280;71360;43.506;1.500;2023-09-12T08:35:40;98900.53;;;22.61;66.55
81897;BME280;71360;43.506;1.500;2023-09-12T08:38:06;98899.53;;;22.62;66.43
81897;BME280;71360;43.506;1.500;2023-09-12T08:40:32;98895.78;;;22.63;66.43
81897;BME280;71360;43.506;1.500;2023-09-12T08:43:00;98901.91;;;22.65;66.15
81897;BME280;71360;43.506;1.500;2023-09-12T08:45:29;98906.19;;;22.68;66.59
81897;BME280;71360;43.506;1.500;2023-09-12T08:47:57;98901.09;;;22.73;66.03
81897;BME280;71360;43.506;1.500;2023-09-12T08:50:23;98901.94;;;22.73;66.24
81897;BME280;71360;43.506;1.500;2023-09-12T08:52:50;98904.34;;;22.76;66.24
81897;BME280;71360;43.506;1.500;2023-09-12T08:55:16;98907.09;;;22.76;66.07
81897;BME280;71360;43.506;1.500;2023-09-12T08:57:42;98911.50;;;22.77;66.13
81897;BME280;71360;43.506;1.500;2023-09-12T09:00:09;98908.28;;;22.82;65.96
81897;BME280;71360;43.506;1.500;2023-09-12T09:02:38;98913.56;;;22.84;65.69
81897;BME280;71360;43.506;1.500;2023-09-12T09:05:09;98906.41;;;22.83;65.90
81897;BME280;71360;43.506;1.500;2023-09-12T09:07:39;98908.97;;;22.84;65.76
81897;BME280;71360;43.506;1.500;2023-09-12T09:10:07;98918.69;;;22.87;65.63
81897;BME280;71360;43.506;1.500;2023-09-12T09:12:39;98904.06;;;22.88;65.52
81897;BME280;71360;43.506;1.500;2023-09-12T09:15:27;98913.94;;;22.89;65.27
81897;BME280;71360;43.506;1.500;2023-09-12T09:17:54;98914.94;;;22.88;65.31
81897;BME280;71360;43.506;1.500;2023-09-12T09:20:30;98914.94;;;22.88;65.08
81897;BME280;71360;43.506;1.500;2023-09-12T09:22:57;98915.97;;;22.87;65.55
81897;BME280;71360;43.506;1.500;2023-09-12T09:25:23;98907.44;;;22.90;65.61
81897;BME280;71360;43.506;1.500;2023-09-12T09:27:49;98905.59;;;22.90;65.83
81897;BME280;71360;43.506;1.500;2023-09-12T09:30:14;98902.00;;;22.90;65.80
81897;BME280;71360;43.506;1.500;2023-09-12T09:33:03;98897.59;;;22.89;66.51
81897;BME280;71360;43.506;1.500;2023-09-12T09:35:28;98904.88;;;22.88;66.14
81897;BME280;71360;43.506;1.500;2023-09-12T09:37:54;98907.78;;;22.87;66.45
81897;BME280;71360;43.506;1.500;2023-09-12T09:40:22;98903.19;;;22.87;66.36
81897;BME280;71360;43.506;1.500;2023-09-12T09:42:53;98898.25;;;22.91;66.12
81897;BME280;71360;43.506;1.500;2023-09-12T09:45:19;98905.44;;;22.92;66.33
81897;BME280;71360;43.506;1.500;2023-09-12T09:47:44;98897.91;;;22.94;66.37
81897;BME280;71360;43.506;1.500;2023-09-12T09:50:14;98901.19;;;22.98;66.94
81897;BME280;71360;43.506;1.500;2023-09-12T09:52:39;98901.00;;;22.99;66.90
81897;BME280;71360;43.506;1.500;2023-09-12T09:55:06;98911.56;;;23.02;66.55
81897;BME280;71360;43.506;1.500;2023-09-12T09:57:37;98914.81;;;23.06;66.08
81897;BME280;71360;43.506;1.500;2023-09-12T10:00:03;98916.72;;;23.05;66.44
81897;BME280;71360;43.506;1.500;2023-09-12T10:02:35;98920.44;;;23.04;66.36
81897;BME280;71360;43.506;1.500;2023-09-12T10:05:04;98920.09;;;22.99;65.86
81897;BME280;71360;43.506;1.500;2023-09-12T10:07:32;98929.59;;;22.95;66.27
81897;BME280;71360;43.506;1.500;2023-09-12T10:10:00;98941.53;;;22.94;66.62
81897;BME280;71360;43.506;1.500;2023-09-12T10:12:28;98940.69;;;22.93;66.21
81897;BME280;71360;43.506;1.500;2023-09-12T10:14:58;98943.56;;;22.92;65.57
81897;BME280;71360;43.506;1.500;2023-09-12T10:17:31;98946.28;;;22.92;65.70
81897;BME280;71360;43.506;1.500;2023-09-12T10:20:03;98947.47;;;22.89;65.43
81897;BME280;71360;43.506;1.500;2023-09-12T10:22:39;98943.91;;;22.89;65.53
81897;BME280;71360;43.506;1.500;2023-09-12T10:25:07;98935.56;;;22.90;65.37
81897;BME280;71360;43.506;1.500;2023-09-12T10:27:33;98946.47;;;22.90;65.88
81897;BME280;71360;43.506;1.500;2023-09-12T10:30:01;98934.69;;;22.90;65.18
81897;BME280;71360;43.506;1.500;2023-09-12T10:32:28;98941.84;;;22.91;65.66
81897;BME280;71360;43.506;1.500;2023-09-12T10:34:58;98948.16;;;22.91;65.23
81897;BME280;71360;43.506;1.500;2023-09-12T10:37:25;98941.69;;;22.92;65.04
81897;BME280;71360;43.506;1.500;2023-09-12T10:39:55;98945.13;;;22.95;64.50
81897;BME280;71360;43.506;1.500;2023-09-12T10:42:21;98927.75;;;22.96;65.13
81897;BME280;71360;43.506;1.500;2023-09-12T10:44:50;98930.97;;;22.99;64.99
81897;BME280;71360;43.506;1.500;2023-09-12T10:47:17;98929.97;;;23.00;64.78
81897;BME280;71360;43.506;1.500;2023-09-12T10:49:44;98926.25;;;23.01;65.08
81897;BME280;71360;43.506;1.500;2023-09-12T10:52:09;98937.97;;;23.02;64.84
81897;BME280;71360;43.506;1.500;2023-09-12T10:54:39;98933.38;;;23.02;63.92
81897;BME280;71360;43.506;1.500;2023-09-12T10:57:06;98928.78;;;23.03;64.59
81897;BME280;71360;43.506;1.500;2023-09-12T10:59:32;98948.03;;;23.01;64.18
81897;BME280;71360;43.506;1.500;2023-09-12T11:02:32;98947.00;;;23.02;64.61
81897;BME280;71360;43.506;1.500;2023-09-12T11:04:59;98950.94;;;23.00;64.53
81897;BME280;71360;43.506;1.500;2023-09-12T11:12:42;98958.41;;;22.98;64.47
81897;BME280;71360;43.506;1.500;2023-09-12T11:15:08;98955.84;;;22.96;65.21
81897;BME280;71360;43.506;1.500;2023-09-12T11:17:39;98954.13;;;22.95;65.05
81897;BME280;71360;43.506;1.500;2023-09-12T11:20:06;98953.59;;;22.91;64.67
81897;BME280;71360;43.506;1.500;2023-09-12T11:22:42;98954.47;;;22.92;65.04
81897;BME280;71360;43.506;1.500;2023-09-12T11:25:25;98955.31;;;22.92;64.95
81897;BME280;71360;43.506;1.500;2023-09-12T11:30:21;98957.88;;;22.94;65.11
81897;BME280;71360;43.506;1.500;2023-09-12T11:32:49;98949.56;;;22.96;65.14
81897;BME280;71360;43.506;1.500;2023-09-12T11:35:21;98951.78;;;23.00;64.96
81897;BME280;71360;43.506;1.500;2023-09-12T11:37:52;98938.50;;;23.05;65.27
81897;BME280;71360;43.506;1.500;2023-09-12T11:42:59;98930.91;;;23.17;64.34
81897;BME280;71360;43.506;1.500;2023-09-12T11:45:27;98936.22;;;23.27;64.33
81897;BME280;71360;43.506;1.500;2023-09-12T11:47:54;98928.72;;;23.37;64.21
81897;BME280;71360;43.506;1.500;2023-09-12T11:50:30;98923.81;;;23.49;63.46
81897;BME280;71360;43.506;1.500;2023-09-12T11:53:11;98916.16;;;23.61;63.25
81897;BME280;71360;43.506;1.500;2023-09-12T11:55:44;98916.00;;;23.71;62.79
81897;BME280;71360;43.506;1.500;2023-09-12T11:58:12;98907.81;;;23.79;62.56
81897;BME280;71360;43.506;1.500;2023-09-12T12:00:48;98897.06;;;23.86;62.47
81897;BME280;71360;43.506;1.500;2023-09-12T12:03:15;98905.78;;;23.89;62.18
81897;BME280;71360;43.506;1.500;2023-09-12T12:05:42;98904.25;;;23.95;61.88
81897;BME280;71360;43.506;1.500;2023-09-12T12:08:10;98900.34;;;23.98;61.39
81897;BME280;71360;43.506;1.500;2023-09-12T12:10:36;98897.25;;;24.01;62.03
81897;BME280;71360;43.506;1.500;2023-09-12T12:13:04;98894.88;;;24.06;62.12
81897;BME280;71360;43.506;1.500;2023-09-12T12:15:30;98907.97;;;24.10;61.66
81897;BME280;71360;43.506;1.500;2023-09-12T12:17:56;98913.09;;;24.14;61.51
81897;BME280;71360;43.506;1.500;2023-09-12T12:20:22;98918.38;;;24.15;61.41
81897;BME280;71360;43.506;1.500;2023-09-12T12:22:48;98928.09;;;24.18;61.09
81897;BME280;71360;43.506;1.500;2023-09-12T12:25:14;98933.22;;;24.21;61.65
81897;BME280;71360;43.506;1.500;2023-09-12T12:27:41;98933.06;;;24.22;61.15
81897;BME280;71360;43.506;1.500;2023-09-12T12:30:11;98925.69;;;24.23;61.26
81897;BME280;71360;43.506;1.500;2023-09-12T12:32:44;98916.16;;;24.19;61.25
81897;BME280;71360;43.506;1.500;2023-09-12T12:35:19;98909.34;;;24.15;61.31
81897;BME280;71360;43.506;1.500;2023-09-12T12:37:50;98898.06;;;24.09;61.05
81897;BME280;71360;43.506;1.500;2023-09-12T12:40:16;98896.72;;;24.05;61.28
81897;BME280;71360;43.506;1.500;2023-09-12T12:42:45;98888.19;;;24.00;62.39
81897;BME280;71360;43.506;1.500;2023-09-12T12:45:21;98886.84;;;23.96;61.66
81897;BME280;71360;43.506;1.500;2023-09-12T12:47:51;98884.63;;;23.91;62.22
81897;BME280;71360;43.506;1.500;2023-09-12T12:50:17;98887.88;;;23.87;61.84
81897;BME280;71360;43.506;1.500;2023-09-12T12:52:47;98910.88;;;23.84;62.28
81897;BME280;71360;43.506;1.500;2023-09-12T12:55:14;98916.50;;;23.83;62.75
81897;BME280;71360;43.506;1.500;2023-09-12T12:57:41;98909.69;;;23.79;62.37
81897;BME280;71360;43.506;1.500;2023-09-12T13:00:12;98905.59;;;23.74;62.88
81897;BME280;71360;43.506;1.500;2023-09-12T13:02:42;98912.41;;;23.70;62.46
81897;BME280;71360;43.506;1.500;2023-09-12T13:05:24;98916.16;;;23.69;63.10
81897;BME280;71360;43.506;1.500;2023-09-12T13:07:50;98912.06;;;23.65;63.18
81897;BME280;71360;43.506;1.500;2023-09-12T13:10:17;98909.34;;;23.65;63.32
81897;BME280;71360;43.506;1.500;2023-09-12T13:12:42;98903.19;;;23.63;63.60
81897;BME280;71360;43.506;1.500;2023-09-12T13:15:11;98890.91;;;23.59;63.35
81897;BME280;71360;43.506;1.500;2023-09-12T13:17:37;98879.66;;;23.54;63.53
81897;BME280;71360;43.506;1.500;2023-09-12T13:20:02;98877.28;;;23.51;63.50
81897;BME280;71360;43.506;1.500;2023-09-12T13:22:34;98883.56;;;23.51;64.15
81897;BME280;71360;43.506;1.500;2023-09-12T13:25:00;98889.03;;;23.51;63.83
81897;BME280;71360;43.506;1.500;2023-09-12T13:27:26;98889.72;;;23.53;64.01